地図

経路データ

SID SEASON NUMBER BASIN SUBBASIN NAME ISO_TIME NATURE LAT LON WMO_WIND WMO_PRES WMO_AGENCY TRACK_TYPE DIST2LAND LANDFALL IFLAG USA_AGENCY USA_ATCF_ID USA_LAT USA_LON USA_RECORD USA_STATUS USA_WIND USA_PRES USA_SSHS USA_R34_NE USA_R34_SE USA_R34_SW USA_R34_NW USA_R50_NE USA_R50_SE USA_R50_SW USA_R50_NW USA_R64_NE USA_R64_SE USA_R64_SW USA_R64_NW USA_POCI USA_ROCI USA_RMW USA_EYE TOKYO_LAT TOKYO_LON TOKYO_GRADE TOKYO_WIND TOKYO_PRES TOKYO_R50_DIR TOKYO_R50_LONG TOKYO_R50_SHORT TOKYO_R30_DIR TOKYO_R30_LONG TOKYO_R30_SHORT TOKYO_LAND CMA_LAT CMA_LON CMA_CAT CMA_WIND CMA_PRES HKO_LAT HKO_LON HKO_CAT HKO_WIND HKO_PRES NEWDELHI_LAT NEWDELHI_LON NEWDELHI_GRADE NEWDELHI_WIND NEWDELHI_PRES NEWDELHI_CI NEWDELHI_DP NEWDELHI_POCI REUNION_LAT REUNION_LON REUNION_TYPE REUNION_WIND REUNION_PRES REUNION_TNUM REUNION_CI REUNION_RMW REUNION_R34_NE REUNION_R34_SE REUNION_R34_SW REUNION_R34_NW REUNION_R50_NE REUNION_R50_SE REUNION_R50_SW REUNION_R50_NW REUNION_R64_NE REUNION_R64_SE REUNION_R64_SW REUNION_R64_NW BOM_LAT BOM_LON BOM_TYPE BOM_WIND BOM_PRES BOM_TNUM BOM_CI BOM_RMW BOM_R34_NE BOM_R34_SE BOM_R34_SW BOM_R34_NW BOM_R50_NE BOM_R50_SE BOM_R50_SW BOM_R50_NW BOM_R64_NE BOM_R64_SE BOM_R64_SW BOM_R64_NW BOM_ROCI BOM_POCI BOM_EYE BOM_POS_METHOD BOM_PRES_METHOD NADI_LAT NADI_LON NADI_CAT NADI_WIND NADI_PRES WELLINGTON_LAT WELLINGTON_LON WELLINGTON_WIND WELLINGTON_PRES DS824_LAT DS824_LON DS824_STAGE DS824_WIND DS824_PRES TD9636_LAT TD9636_LON TD9636_STAGE TD9636_WIND TD9636_PRES TD9635_LAT TD9635_LON TD9635_WIND TD9635_PRES TD9635_ROCI NEUMANN_LAT NEUMANN_LON NEUMANN_CLASS NEUMANN_WIND NEUMANN_PRES MLC_LAT MLC_LON MLC_CLASS MLC_WIND MLC_PRES USA_GUST BOM_GUST BOM_GUST_PER REUNION_GUST REUNION_GUST_PER USA_SEAHGT USA_SEARAD_NE USA_SEARAD_SE USA_SEARAD_SW USA_SEARAD_NW STORM_SPEED STORM_DIR
1859312N13278 1859 27 NA CS NOT_NAMED 1859-11-08 00:00:00 TS 12.8000 -82.4000 main 119 119 _____________O -1 12.8000 -82.4000 TD 30 2 319
1859312N13278 1859 27 NA CS NOT_NAMED 1859-11-08 03:00:00 TS 12.8600 -82.4500 main 119 108 _____________P -1 12.8600 -82.4500 TD 30 1 317
1859312N13278 1859 27 NA CS NOT_NAMED 1859-11-08 06:00:00 TS 12.9000 -82.5000 main 108 108 _____________O -1 12.9000 -82.5000 TD 30 1 302
1859312N13278 1859 27 NA CS NOT_NAMED 1859-11-08 09:00:00 TS 12.9200 -82.5500 main 97 97 _____________P -1 12.9200 -82.5500 TD 30 1 317
1859312N13278 1859 27 NA CS NOT_NAMED 1859-11-08 12:00:00 TS 13.0000 -82.6000 main 97 97 _____________O -1 13.0000 -82.6000 TD 30 3 343
1859312N13278 1859 27 NA CS NOT_NAMED 1859-11-08 15:00:00 TS 13.2200 -82.6500 main 97 86 _____________P -1 13.2200 -82.6500 TD 30 5 349
1859312N13278 1859 27 NA CS NOT_NAMED 1859-11-08 18:00:00 TS 13.5000 -82.7000 main 86 82 _____________O -1 13.5000 -82.7000 TD 30 5 350
1859312N13278 1859 27 NA CS NOT_NAMED 1859-11-08 21:00:00 TS 13.7500 -82.7500 main 68 54 _____________P -1 13.7500 -82.7500 TD 30 5 349
1859312N13278 1859 27 NA CS NOT_NAMED 1859-11-09 00:00:00 TS 14.0000 -82.8000 main 54 44 _____________O -1 14.0000 -82.8000 TD 30 5 349
1859312N13278 1859 27 NA CS NOT_NAMED 1859-11-09 03:00:00 TS 14.2500 -82.8500 main 32 32 _____________P -1 14.2500 -82.8500 TD 30 5 349
1859312N13278 1859 27 NA CS NOT_NAMED 1859-11-09 06:00:00 TS 14.5000 -82.9000 main 39 39 _____________O -1 14.5000 -82.9000 TD 30 5 350
1859312N13278 1859 27 NA CS NOT_NAMED 1859-11-09 09:00:00 TS 14.7350 -82.9426 main 39 10 _____________P -1 14.7350 -82.9426 TD 32 5 349
1859312N13278 1859 27 NA CS NOT_NAMED 1859-11-09 12:00:00 TS 15.0000 -83.0000 main 10 10 _____________O -1 15.0000 -83.0000 TS 35 6 346
1859312N13278 1859 27 NA CS NOT_NAMED 1859-11-09 15:00:00 TS 15.3425 -83.0999 main 31 31 _____________P -1 15.3425 -83.0999 TS 35 7 345
1859312N13278 1859 27 NA CS NOT_NAMED 1859-11-09 18:00:00 TS 15.7000 -83.2000 main 49 49 _____________O -1 15.7000 -83.2000 TS 35 7 347
1859312N13278 1859 27 NA CS NOT_NAMED 1859-11-09 21:00:00 TS 16.0075 -83.2576 main 79 79 _____________P -1 16.0075 -83.2576 TS 35 6 351
1859312N13278 1859 27 NA CS NOT_NAMED 1859-11-10 00:00:00 TS 16.3000 -83.3000 main 108 108 _____________O -1 16.3000 -83.3000 TS 35 6 352
1859312N13278 1859 27 NA CS NOT_NAMED 1859-11-10 03:00:00 TS 16.6000 -83.3500 main 128 128 _____________P -1 16.6000 -83.3500 TS 35 6 351
1859312N13278 1859 27 NA CS NOT_NAMED 1859-11-10 06:00:00 TS 16.9000 -83.4000 main 156 156 _____________O -1 16.9000 -83.4000 TS 35 6 352
1859312N13278 1859 27 NA CS NOT_NAMED 1859-11-10 09:00:00 TS 17.2150 -83.4351 main 183 183 _____________P -1 17.2150 -83.4351 TS 37 6 351
1859312N13278 1859 27 NA CS NOT_NAMED 1859-11-10 12:00:00 TS 17.5000 -83.5000 main 208 208 _____________O -1 17.5000 -83.5000 TS 40 5 338
1859312N13278 1859 27 NA CS NOT_NAMED 1859-11-10 15:00:00 TS 17.7150 -83.6425 main 225 222 _____________P -1 17.7150 -83.6425 TS 40 5 325
1859312N13278 1859 27 NA CS NOT_NAMED 1859-11-10 18:00:00 TS 17.9000 -83.8000 main 240 240 _____________O -1 17.9000 -83.8000 TS 40 4 325
1859312N13278 1859 27 NA CS NOT_NAMED 1859-11-10 21:00:00 TS 18.0625 -83.9002 main 260 260 _____________P -1 18.0625 -83.9002 TS 40 4 335
1859312N13278 1859 27 NA CS NOT_NAMED 1859-11-11 00:00:00 TS 18.3000 -84.0000 main 278 278 _____________O -1 18.3000 -84.0000 TS 40 7 340
1859312N13278 1859 27 NA CS NOT_NAMED 1859-11-11 03:00:00 TS 18.7200 -84.1499 main 319 290 _____________P -1 18.7200 -84.1499 TS 40 9 342
1859312N13278 1859 27 NA CS NOT_NAMED 1859-11-11 06:00:00 TS 19.2000 -84.3000 main 290 246 _____________O -1 19.2000 -84.3000 TS 40 9 343
1859312N13278 1859 27 NA CS NOT_NAMED 1859-11-11 09:00:00 TS 19.6225 -84.4374 main 246 201 _____________P -1 19.6225 -84.4374 TS 42 8 347
1859312N13278 1859 27 NA CS NOT_NAMED 1859-11-11 12:00:00 TS 20.0000 -84.5000 main 201 168 _____________O -1 20.0000 -84.5000 TS 45 7 0
1859312N13278 1859 27 NA CS NOT_NAMED 1859-11-11 15:00:00 TS 20.3150 -84.4227 main 168 135 _____________P -1 20.3150 -84.4227 TS 45 6 17
1859312N13278 1859 27 NA CS NOT_NAMED 1859-11-11 18:00:00 TS 20.6000 -84.3000 main 135 105 _____________O -1 20.6000 -84.3000 TS 45 6 16
1859312N13278 1859 27 NA CS NOT_NAMED 1859-11-11 21:00:00 TS 20.9000 -84.2424 main 105 73 _____________P -1 20.9000 -84.2424 TS 47 6 9
1859312N13278 1859 27 NA CS NOT_NAMED 1859-11-12 00:00:00 TS 21.2000 -84.2000 main 73 44 _____________O -1 21.2000 -84.2000 TS 50 6 8
1859312N13278 1859 27 NA CS NOT_NAMED 1859-11-12 03:00:00 TS 21.5000 -84.1500 main 44 11 _____________P -1 21.5000 -84.1500 TS 52 6 9
1859312N13278 1859 27 NA CS NOT_NAMED 1859-11-12 06:00:00 TS 21.8000 -84.1000 main 11 0 _____________O -1 21.8000 -84.1000 TS 55 6 8
1859312N13278 1859 27 NA NA NOT_NAMED 1859-11-12 09:00:00 TS 22.1225 -84.0575 main 0 0 _____________P -1 22.1225 -84.0575 TS 55 6 8
1859312N13278 1859 27 NA NA NOT_NAMED 1859-11-12 12:00:00 TS 22.4000 -84.0000 main 0 0 _____________O -1 22.4000 -84.0000 TS 55 5 17
1859312N13278 1859 27 NA NA NOT_NAMED 1859-11-12 15:00:00 TS 22.5725 -83.9075 main 0 0 _____________P -1 22.5725 -83.9075 TS 55 4 31
1859312N13278 1859 27 NA NA NOT_NAMED 1859-11-12 18:00:00 TS 22.7000 -83.8000 main 0 0 _____________O -1 22.7000 -83.8000 TS 55 3 34
1859312N13278 1859 27 NA GM NOT_NAMED 1859-11-12 21:00:00 TS 22.8500 -83.7075 main 0 0 _____________P -1 22.8500 -83.7075 TS 55 4 31
1859312N13278 1859 27 NA GM NOT_NAMED 1859-11-13 00:00:00 TS 23.0000 -83.6000 main 22 22 _____________O -1 23.0000 -83.6000 TS 55 4 38
1859312N13278 1859 27 NA GM NOT_NAMED 1859-11-13 03:00:00 TS 23.1500 -83.4575 main 35 33 _____________P -1 23.1500 -83.4575 TS 55 4 43
1859312N13278 1859 27 NA GM NOT_NAMED 1859-11-13 06:00:00 TS 23.3000 -83.3000 main 44 44 _____________O -1 23.3000 -83.3000 TS 55 4 43
1859312N13278 1859 27 NA GM NOT_NAMED 1859-11-13 09:00:00 TS 23.4500 -83.1574 main 55 55 _____________P -1 23.4500 -83.1574 TS 55 4 42
1859312N13278 1859 27 NA GM NOT_NAMED 1859-11-13 12:00:00 TS 23.6000 -83.0000 main 70 67 _____________O -1 23.6000 -83.0000 TS 55 4 47
1859312N13278 1859 27 NA NA NOT_NAMED 1859-11-13 15:00:00 TS 23.7500 -82.8075 main 84 80 _____________P -1 23.7500 -82.8075 TS 55 5 51
1859312N13278 1859 27 NA NA NOT_NAMED 1859-11-13 18:00:00 TS 23.9000 -82.6000 main 89 89 _____________O -1 23.9000 -82.6000 TS 55 4 51
1859312N13278 1859 27 NA NA NOT_NAMED 1859-11-13 21:00:00 TS 24.0121 -82.4593 main 100 100 _____________P -1 24.0121 -82.4593 TS 55 5 50
1859312N13278 1859 27 NA NA NOT_NAMED 1859-11-14 00:00:00 TS 24.2000 -82.2000 main 122 90 _____________O -1 24.2000 -82.2000 TS 55 9 54
1859312N13278 1859 27 NA NA NOT_NAMED 1859-11-14 03:00:00 TS 24.5326 -81.6748 main 90 11 _____________P -1 24.5326 -81.6748 TS 55 14 54
1859312N13278 1859 27 NA GM NOT_NAMED 1859-11-14 06:00:00 TS 25.0000 -81.0000 main 15 0 _____________O -1 25.0000 -81.0000 TS 55 13 54
1859312N13278 1859 27 NA NA NOT_NAMED 1859-11-14 09:00:00 TS 25.2874 -80.5291 main 0 0 _____________P -1 25.2874 -80.5291 TS 55 17 47
1859312N13278 1859 27 NA NA NOT_NAMED 1859-11-14 12:00:00 TS 26.2000 -79.6000 main 49 49 _____________O -1 26.2000 -79.6000 TS 55 41 37
1859312N13278 1859 27 NA NA NOT_NAMED 1859-11-14 15:00:00 TS 28.5172 -77.7870 main 263 263 _____________P -1 28.5172 -77.7870 TS 55 63 39
1859312N13278 1859 27 NA NA NOT_NAMED 1859-11-14 18:00:00 TS 31.1000 -75.1000 main 413 392 _____________O -1 31.1000 -75.1000 TS 55 68 50
1859312N13278 1859 27 NA NA NOT_NAMED 1859-11-14 21:00:00 TS 32.8659 -71.7396 main 474 474 _____________P -1 32.8659 -71.7396 TS 55 66 64
1859312N13278 1859 27 NA NA NOT_NAMED 1859-11-15 00:00:00 ET 34.0000 -68.0000 main 711 _____________O -1 34.0000 -68.0000 EX 55 66 70

IBTrACS Databaseについて

本データベースは、米国NOAAが公開する1842年以降の世界の熱帯低気圧のベストトラックデータアーカイブInternational Best Track Archive for Climate Stewardship (IBTrACS)を、ウェブで閲覧しやすい形式に変換したものです。

最終更新日:2021-10-21